Acorn, Kentucky
Current Conditions -  °F | °C
As of 10:35 PM on Friday 19 Dec 2014 (Local Time) from KSME Reporting Station
Clear Clear  
Wind Chill: 24°   Ceiling: Unl
Heat Index: 30°   Visibility: 10mi
Dew Point: 23°   Wind: 6mph
Humidity: 75%   Direction: 50°NE
Pressure: 30.23"   Gusts: NA
Location:  37.0813°N, 84.4741°W
Report Text: KSME 200335Z AUTO 05005KT 10SM CLR M01/M05 A3023 RMK AO2
Loading
Personal Weather Stations






























Interactive Weather Map New forecast layout! Learn more

10-Day Weather Forecast

Advertisements
Track Severe Weather on mobile